createdAt,value
2018-02-13T00:00:41.234Z,1
2018-02-13T00:01:43.613Z,1
2018-02-13T00:02:45.971Z,1.5
2018-02-13T00:03:48.334Z,1.4
2018-02-13T00:04:50.708Z,1.3
2018-02-13T00:05:53.118Z,1.3
2018-02-13T00:06:55.435Z,1.1
2018-02-13T00:07:58.086Z,1
2018-02-13T00:09:00.456Z,1
2018-02-13T00:10:02.816Z,1.1
2018-02-13T00:11:05.178Z,1.5
2018-02-13T00:12:07.539Z,1.4
2018-02-13T00:13:09.918Z,1.3
2018-02-13T00:14:12.559Z,1.1
2018-02-13T00:15:14.923Z,1.1
2018-02-13T00:16:17.573Z,1
2018-02-13T00:17:19.954Z,1
2018-02-13T00:18:22.321Z,1
2018-02-13T00:19:24.698Z,1.5
2018-02-13T00:20:27.618Z,1.6
2018-02-13T00:21:30.269Z,1.4
2018-02-13T00:22:32.644Z,1.4
2018-02-13T00:23:35.014Z,1.5
2018-02-13T00:24:37.382Z,1.2
2018-02-13T00:25:39.746Z,1.1
2018-02-13T00:26:42.388Z,1.1
2018-02-13T00:27:44.760Z,1.1
2018-02-13T00:28:47.119Z,1
2018-02-13T00:29:49.481Z,1.4
2018-02-13T00:30:51.848Z,1.4
2018-02-13T00:31:54.223Z,1.4
2018-02-13T00:32:56.642Z,1.1
2018-02-13T00:33:58.970Z,1.2
2018-02-13T00:35:01.328Z,1
2018-02-13T00:36:03.702Z,1
2018-02-13T00:37:06.074Z,1.3
2018-02-13T00:38:08.438Z,1.5
2018-02-13T00:39:10.802Z,1.3
2018-02-13T00:40:13.443Z,1.4
2018-02-13T00:41:15.806Z,1.2
2018-02-13T00:42:18.174Z,1
2018-02-13T00:43:20.534Z,1
2018-02-13T00:44:22.909Z,1.1
2018-02-13T00:45:25.300Z,1.2
2018-02-13T00:46:27.642Z,1.3
2018-02-13T00:47:30.014Z,1.4
2018-02-13T00:48:32.661Z,1.3
2018-02-13T00:49:35.029Z,1.1
2018-02-13T00:50:37.398Z,1.1
2018-02-13T00:51:39.761Z,1.1
2018-02-13T00:52:42.129Z,1
2018-02-13T00:53:44.499Z,1.3
2018-02-13T00:54:46.858Z,1.5
2018-02-13T00:55:49.228Z,1.3
2018-02-13T00:56:51.591Z,1.1
2018-02-13T00:57:53.954Z,1.1
2018-02-13T00:58:56.360Z,1.1
2018-02-13T00:59:58.718Z,1.1
2018-02-13T01:01:01.381Z,1.4
2018-02-13T01:02:03.750Z,1.6
2018-02-13T01:03:06.398Z,1.4
2018-02-13T01:04:08.765Z,1.4
2018-02-13T01:05:11.133Z,1.5
2018-02-13T01:06:13.496Z,1.4
2018-02-13T01:07:15.864Z,1
2018-02-13T01:08:18.236Z,1
2018-02-13T01:09:20.599Z,1.1
2018-02-13T01:10:22.960Z,1.3
2018-02-13T01:11:25.326Z,1.3
2018-02-13T01:12:27.700Z,1.3
2018-02-13T01:13:30.063Z,1.2
2018-02-13T01:14:32.428Z,1
2018-02-13T01:15:34.795Z,1
2018-02-13T01:16:37.157Z,1.1
2018-02-13T01:17:39.535Z,1.3
2018-02-13T01:18:41.905Z,1.4
2018-02-13T01:19:44.268Z,1.3
2018-02-13T01:20:46.943Z,1.3
2018-02-13T01:21:49.304Z,1.2
2018-02-13T01:22:51.679Z,1.1
2018-02-13T01:23:54.331Z,1.1
2018-02-13T01:24:56.689Z,1.1
2018-02-13T01:25:59.070Z,1.1
2018-02-13T01:27:01.445Z,1.4
2018-02-13T01:28:03.809Z,1.4
2018-02-13T01:29:06.179Z,1.4
2018-02-13T01:30:08.826Z,1.1
2018-02-13T01:31:11.482Z,1.2
2018-02-13T01:32:14.138Z,1.2
2018-02-13T01:33:16.796Z,1
2018-02-13T01:34:19.157Z,1
2018-02-13T01:35:21.810Z,1
2018-02-13T01:36:24.176Z,1
2018-02-13T01:37:26.546Z,1.3
2018-02-13T01:38:29.474Z,1.3
2018-02-13T01:39:31.840Z,1.6
2018-02-13T01:40:34.484Z,1.4
2018-02-13T01:41:36.847Z,1.3
2018-02-13T01:42:39.490Z,1.1
2018-02-13T01:43:41.864Z,1.3
2018-02-13T01:44:44.223Z,1.1
2018-02-13T01:45:46.602Z,1.1
2018-02-13T01:46:48.972Z,1
2018-02-13T01:47:51.440Z,1.5
2018-02-13T01:48:53.805Z,1.5
2018-02-13T01:49:56.743Z,1.4
2018-02-13T01:50:59.388Z,1.3
2018-02-13T01:52:02.042Z,1.4
2018-02-13T01:53:04.691Z,1.5
2018-02-13T01:54:07.338Z,1.4
2018-02-13T01:55:09.705Z,1.4
2018-02-13T01:56:12.080Z,1.2
2018-02-13T01:57:14.728Z,1.2
2018-02-13T01:58:17.104Z,1.1
2018-02-13T01:59:19.747Z,1
2018-02-13T02:00:22.120Z,1
2018-02-13T02:01:24.492Z,1.1
2018-02-13T02:02:26.858Z,1.3
2018-02-13T02:03:29.231Z,1.4
2018-02-13T02:04:31.601Z,1.3
2018-02-13T02:05:33.965Z,1.3
2018-02-13T02:06:36.333Z,1.1
2018-02-13T02:07:38.708Z,1
2018-02-13T02:08:41.070Z,1.1
2018-02-13T02:09:43.439Z,1.3
2018-02-13T02:10:45.804Z,1.4
2018-02-13T02:11:48.180Z,1.3
2018-02-13T02:12:50.549Z,1.2
2018-02-13T02:13:52.924Z,1
2018-02-13T02:14:55.567Z,1.1
2018-02-13T02:15:58.217Z,1
2018-02-13T02:17:00.585Z,1
2018-02-13T02:18:02.951Z,1.5
2018-02-13T02:19:05.314Z,1.4
2018-02-13T02:20:07.680Z,1.7
2018-02-13T02:21:10.045Z,1.2
2018-02-13T02:22:12.425Z,1.6
2018-02-13T02:23:15.071Z,1.1
2018-02-13T02:24:17.438Z,1
2018-02-13T02:25:20.084Z,1
2018-02-13T02:26:22.453Z,1.4
2018-02-13T02:27:24.823Z,1.4
2018-02-13T02:28:27.194Z,1.6
2018-02-13T02:29:29.842Z,1.3
2018-02-13T02:30:32.207Z,1.4
2018-02-13T02:31:34.577Z,1.5
2018-02-13T02:32:36.946Z,1.1
2018-02-13T02:33:39.592Z,1.1
2018-02-13T02:34:41.963Z,1
2018-02-13T02:35:44.327Z,1
2018-02-13T02:36:46.687Z,1.7
2018-02-13T02:37:49.338Z,1.4
2018-02-13T02:38:51.992Z,1.3
2018-02-13T02:39:54.364Z,1.3
2018-02-13T02:40:56.726Z,1.3
2018-02-13T02:41:59.096Z,1.2
2018-02-13T02:43:01.744Z,1.1
2018-02-13T02:44:04.107Z,1.1
2018-02-13T02:45:06.467Z,1
2018-02-13T02:46:08.834Z,1.6
2018-02-13T02:47:11.197Z,1.5
2018-02-13T02:48:13.569Z,1.6
2018-02-13T02:49:16.219Z,1.4
2018-02-13T02:50:18.572Z,1.1
2018-02-13T02:51:20.946Z,1.4
2018-02-13T02:52:23.312Z,1.1
2018-02-13T02:53:25.679Z,1.1
2018-02-13T02:54:28.049Z,1.1
2018-02-13T02:55:30.412Z,1.2
2018-02-13T02:56:32.778Z,1.4
2018-02-13T02:57:35.152Z,1.4
2018-02-13T02:58:37.512Z,1.3
2018-02-13T02:59:39.879Z,1
2018-02-13T03:00:42.531Z,1
2018-02-13T03:01:44.891Z,1
2018-02-13T03:02:47.544Z,1.1
2018-02-13T03:03:49.913Z,1.3
2018-02-13T03:04:52.271Z,1.4
2018-02-13T03:05:54.644Z,1.4
2018-02-13T03:06:57.278Z,1.4
2018-02-13T03:07:59.650Z,1.3
2018-02-13T03:09:02.024Z,1.2
2018-02-13T03:10:04.668Z,1
2018-02-13T03:11:07.035Z,1.1
2018-02-13T03:12:09.683Z,1.1
2018-02-13T03:13:12.045Z,1.1
2018-02-13T03:14:14.705Z,1.5
2018-02-13T03:15:17.351Z,1.6
2018-02-13T03:16:19.712Z,1.6
2018-02-13T03:17:22.085Z,1.4
2018-02-13T03:18:24.454Z,1.4
2018-02-13T03:19:26.815Z,1.3
2018-02-13T03:20:29.194Z,1.1
2018-02-13T03:21:31.848Z,1
2018-02-13T03:22:34.211Z,1
2018-02-13T03:23:36.582Z,1.1
2018-02-13T03:24:38.956Z,1.5
2018-02-13T03:25:41.319Z,1.6
2018-02-13T03:26:43.690Z,1.3
2018-02-13T03:27:46.045Z,1.3
2018-02-13T03:28:48.425Z,1.1
2018-02-13T03:29:50.793Z,1.1
2018-02-13T03:30:53.433Z,1
2018-02-13T03:31:55.804Z,1.3
2018-02-13T03:32:58.172Z,1.4
2018-02-13T03:34:00.538Z,1.4
2018-02-13T03:35:02.915Z,1.3
2018-02-13T03:36:05.285Z,1.4
2018-02-13T03:37:07.657Z,1
2018-02-13T03:38:10.018Z,1.1
2018-02-13T03:39:12.378Z,1.1
2018-02-13T03:40:15.037Z,1.5
2018-02-13T03:41:17.399Z,1.6
2018-02-13T03:42:19.766Z,1.5
2018-02-13T03:43:22.130Z,1.4
2018-02-13T03:44:24.494Z,1.2
2018-02-13T03:45:26.868Z,1.1
2018-02-13T03:46:29.237Z,1.1
2018-02-13T03:47:31.873Z,1.1
2018-02-13T03:48:34.237Z,1.5
2018-02-13T03:49:36.603Z,1.5
2018-02-13T03:50:38.972Z,1.4
2018-02-13T03:51:41.346Z,1.4
2018-02-13T03:52:43.705Z,1.3
2018-02-13T03:53:46.072Z,1.1
2018-02-13T03:54:48.740Z,1.2
2018-02-13T03:55:51.098Z,1.1
2018-02-13T03:56:54.024Z,1.1
2018-02-13T03:57:56.387Z,1.6
2018-02-13T03:58:59.036Z,1.4
2018-02-13T04:00:01.684Z,1.4
2018-02-13T04:01:04.056Z,1.4
2018-02-13T04:02:06.407Z,1.4
2018-02-13T04:03:08.779Z,1.4
2018-02-13T04:04:11.719Z,1.2
2018-02-13T04:05:14.086Z,1.3
2018-02-13T04:06:16.454Z,1.3
2018-02-13T04:07:18.816Z,1.1
2018-02-13T04:08:21.185Z,1
2018-02-13T04:09:23.557Z,1.1
2018-02-13T04:10:25.921Z,1.4
2018-02-13T04:11:28.298Z,1.3
2018-02-13T04:12:30.663Z,1.5
2018-02-13T04:13:33.030Z,1.2
2018-02-13T04:14:35.401Z,1.2
2018-02-13T04:15:38.041Z,1.1
2018-02-13T04:16:40.694Z,1.1
2018-02-13T04:17:43.065Z,1.1
2018-02-13T04:18:45.424Z,1.1
2018-02-13T04:19:47.787Z,1.2
2018-02-13T04:20:50.157Z,1.4
2018-02-13T04:21:52.516Z,1.2
2018-02-13T04:22:55.454Z,1.3
2018-02-13T04:23:58.100Z,1.3
2018-02-13T04:25:00.745Z,1.4
2018-02-13T04:26:03.119Z,1.2
2018-02-13T04:27:05.478Z,1.1
2018-02-13T04:28:07.838Z,1.1
2018-02-13T04:29:10.212Z,1.1
2018-02-13T04:30:12.575Z,1.4
2018-02-13T04:31:14.944Z,1.5
2018-02-13T04:32:17.311Z,1.5
2018-02-13T04:33:19.682Z,1.3
2018-02-13T04:34:22.045Z,1.2
2018-02-13T04:35:24.413Z,1.1
2018-02-13T04:36:26.781Z,1
2018-02-13T04:37:29.146Z,1.4
2018-02-13T04:38:31.786Z,1.5
2018-02-13T04:39:34.162Z,1.5
2018-02-13T04:40:36.805Z,1.5
2018-02-13T04:41:39.168Z,1.4
2018-02-13T04:42:41.530Z,1.3
2018-02-13T04:43:43.898Z,1.1
2018-02-13T04:44:46.259Z,1.1
2018-02-13T04:45:48.630Z,1
2018-02-13T04:46:51.266Z,1.5
2018-02-13T04:47:53.685Z,1.5
2018-02-13T04:48:56.057Z,1.5
2018-02-13T04:49:58.422Z,1.4
2018-02-13T04:51:01.068Z,1.5
2018-02-13T04:52:03.432Z,1.2
2018-02-13T04:53:05.792Z,1
2018-02-13T04:54:08.719Z,1.2
2018-02-13T04:55:11.080Z,1.1
2018-02-13T04:56:13.436Z,1
2018-02-13T04:57:15.801Z,1.4
2018-02-13T04:58:18.175Z,1.7
2018-02-13T04:59:20.544Z,1.3
2018-02-13T05:00:22.914Z,1.3
2018-02-13T05:01:25.551Z,1.1
2018-02-13T05:02:27.923Z,1.1
2018-02-13T05:03:30.297Z,1
2018-02-13T05:04:32.652Z,1.1
2018-02-13T05:05:35.017Z,1.1
2018-02-13T05:06:37.676Z,1.5
2018-02-13T05:07:40.048Z,1.5
2018-02-13T05:08:42.400Z,1.4
2018-02-13T05:09:44.767Z,1.3
2018-02-13T05:10:47.426Z,1.2
2018-02-13T05:11:49.786Z,1.1
2018-02-13T05:12:52.185Z,1.1
2018-02-13T05:13:54.521Z,1.1
2018-02-13T05:14:56.881Z,1.5
2018-02-13T05:15:59.531Z,1.5
2018-02-13T05:17:01.897Z,1.4
2018-02-13T05:18:04.254Z,1.5
2018-02-13T05:19:06.899Z,1.1
2018-02-13T05:20:09.262Z,1.1
2018-02-13T05:21:11.629Z,1.1
2018-02-13T05:22:14.000Z,1
2018-02-13T05:23:16.356Z,1.1
2018-02-13T05:24:18.722Z,1.3
2018-02-13T05:25:21.094Z,1.6
2018-02-13T05:26:23.461Z,1.3
2018-02-13T05:27:25.833Z,1.2
2018-02-13T05:28:28.196Z,1.1
2018-02-13T05:29:30.830Z,1.1
2018-02-13T05:30:33.200Z,1.2
2018-02-13T05:31:35.565Z,1.1
2018-02-13T05:32:37.928Z,1.4
2018-02-13T05:33:40.280Z,1.4
2018-02-13T05:34:42.649Z,1.3
2018-02-13T05:35:45.024Z,1.4
2018-02-13T05:36:47.374Z,1.2
2018-02-13T05:37:49.744Z,1.1
2018-02-13T05:38:52.390Z,1.1
2018-02-13T05:39:54.756Z,1.5
2018-02-13T05:40:57.125Z,1.4
2018-02-13T05:41:59.487Z,1.6
2018-02-13T05:43:01.861Z,1.4
2018-02-13T05:44:04.501Z,1.3
2018-02-13T05:45:06.864Z,1.2
2018-02-13T05:46:09.504Z,1.1
2018-02-13T05:47:11.870Z,1.1
2018-02-13T05:48:14.518Z,1.1
2018-02-13T05:49:16.883Z,1.1
2018-02-13T05:50:19.243Z,1.5
2018-02-13T05:51:21.608Z,1.6
2018-02-13T05:52:24.247Z,1.3
2018-02-13T05:53:26.626Z,1.3
2018-02-13T05:54:28.991Z,1.2
2018-02-13T05:55:31.349Z,1
2018-02-13T05:56:34.002Z,1.1
2018-02-13T05:57:36.653Z,1.1
2018-02-13T05:58:39.314Z,1.2
2018-02-13T05:59:41.687Z,1.1
2018-02-13T06:00:44.045Z,1.1
2018-02-13T06:01:46.407Z,1.6
2018-02-13T06:02:48.782Z,1.4
2018-02-13T06:03:51.141Z,1.3
2018-02-13T06:04:53.506Z,1.1
2018-02-13T06:05:55.878Z,1.1
2018-02-13T06:06:58.261Z,1.1
2018-02-13T06:08:01.189Z,1.1
2018-02-13T06:09:03.883Z,1.5
2018-02-13T06:10:06.252Z,1.5
2018-02-13T06:11:08.608Z,1.5
2018-02-13T06:12:10.976Z,1.6
2018-02-13T06:13:13.331Z,1.2
2018-02-13T06:14:15.696Z,1.3
2018-02-13T06:15:18.063Z,1.3
2018-02-13T06:16:20.435Z,1.1
2018-02-13T06:17:22.792Z,1.1
2018-02-13T06:18:25.726Z,1.1
2018-02-13T06:19:28.084Z,1.4
2018-02-13T06:20:30.456Z,1.5
2018-02-13T06:21:32.828Z,1.5
2018-02-13T06:22:35.192Z,1.4
2018-02-13T06:23:37.556Z,1.3
2018-02-13T06:24:40.210Z,1.2
2018-02-13T06:25:42.568Z,1.1
2018-02-13T06:26:44.944Z,1.1
2018-02-13T06:27:47.306Z,1.5
2018-02-13T06:28:49.959Z,1.5
2018-02-13T06:29:52.325Z,1.4
2018-02-13T06:30:54.690Z,1.5
2018-02-13T06:31:57.618Z,1.3
2018-02-13T06:32:59.974Z,1.5
2018-02-13T06:34:02.349Z,1.2
2018-02-13T06:35:04.985Z,1.1
2018-02-13T06:36:07.633Z,1.1
2018-02-13T06:37:09.999Z,1.1
2018-02-13T06:38:12.356Z,1.1
2018-02-13T06:39:14.726Z,1.5
2018-02-13T06:40:17.371Z,1.5
2018-02-13T06:41:19.726Z,1.5
2018-02-13T06:42:22.092Z,1.3
2018-02-13T06:43:24.463Z,1.4
2018-02-13T06:44:26.828Z,1.3
2018-02-13T06:45:29.196Z,1.1
2018-02-13T06:46:31.566Z,1.1
2018-02-13T06:47:33.930Z,1.5
2018-02-13T06:48:36.303Z,1.5
2018-02-13T06:49:38.673Z,1.5
2018-02-13T06:50:41.038Z,1.3
2018-02-13T06:51:43.401Z,1.2
2018-02-13T06:52:45.770Z,1.2
2018-02-13T06:53:48.132Z,1.2
2018-02-13T06:54:50.492Z,1.1
2018-02-13T06:55:52.859Z,1.5
2018-02-13T06:56:55.515Z,1.7
2018-02-13T06:57:57.884Z,1.5
2018-02-13T06:59:00.255Z,1.3
2018-02-13T07:00:02.612Z,1.3
2018-02-13T07:01:04.991Z,1.2
2018-02-13T07:02:07.641Z,1.1
2018-02-13T07:03:10.015Z,1.1
2018-02-13T07:04:12.378Z,1.1
2018-02-13T07:05:14.748Z,1.4
2018-02-13T07:06:17.402Z,1.5
2018-02-13T07:07:19.770Z,1.5
2018-02-13T07:08:22.130Z,1.4
2018-02-13T07:09:24.773Z,1.4
2018-02-13T07:10:27.144Z,1.5
2018-02-13T07:11:29.514Z,1.2
2018-02-13T07:12:31.879Z,1.1
2018-02-13T07:13:34.537Z,1.1
2018-02-13T07:14:36.890Z,1.4
2018-02-13T07:15:39.260Z,1.7
2018-02-13T07:16:41.633Z,1.5
2018-02-13T07:17:43.993Z,1.2
2018-02-13T07:18:46.637Z,1.4
2018-02-13T07:19:49.281Z,1.3
2018-02-13T07:20:51.648Z,1.3
2018-02-13T07:21:54.012Z,1.1
2018-02-13T07:22:56.682Z,1.1
2018-02-13T07:23:59.316Z,1.2
2018-02-13T07:25:01.978Z,1.6
2018-02-13T07:26:04.630Z,1.4
2018-02-13T07:27:06.995Z,1.6
2018-02-13T07:28:09.370Z,1.5
2018-02-13T07:29:11.737Z,1.3
2018-02-13T07:30:14.102Z,1.5
2018-02-13T07:31:16.474Z,1.4
2018-02-13T07:32:18.834Z,1.1
2018-02-13T07:33:21.197Z,1.1
2018-02-13T07:34:23.558Z,1.2
2018-02-13T07:35:25.930Z,1.7
2018-02-13T07:36:28.288Z,1.4
2018-02-13T07:37:30.651Z,1.4
2018-02-13T07:38:33.019Z,1.3
2018-02-13T07:39:35.661Z,1.2
2018-02-13T07:40:38.036Z,1.1
2018-02-13T07:41:40.686Z,1.1
2018-02-13T07:42:43.074Z,1.1
2018-02-13T07:43:45.416Z,1.4
2018-02-13T07:44:47.784Z,1.5
2018-02-13T07:45:50.145Z,1.4
2018-02-13T07:46:52.522Z,1.4
2018-02-13T07:47:54.894Z,1.2
2018-02-13T07:48:57.833Z,1.3
2018-02-13T07:50:00.497Z,1.1
2018-02-13T07:51:02.858Z,1.2
2018-02-13T07:52:05.212Z,1.1
2018-02-13T07:53:07.585Z,1.1
2018-02-13T07:54:09.950Z,1.5
2018-02-13T07:55:12.606Z,1.6
2018-02-13T07:56:14.977Z,1.7
2018-02-13T07:57:17.339Z,1.3
2018-02-13T07:58:19.707Z,1.5
2018-02-13T07:59:22.083Z,1.2
2018-02-13T08:00:24.443Z,1.1
2018-02-13T08:01:26.808Z,1.2
2018-02-13T08:02:29.190Z,1.6
2018-02-13T08:03:31.551Z,1.4
2018-02-13T08:04:33.913Z,1.6
2018-02-13T08:05:36.564Z,1.2
2018-02-13T08:06:38.952Z,1.2
2018-02-13T08:07:41.318Z,1.2
2018-02-13T08:08:43.688Z,1.2
2018-02-13T08:09:46.341Z,1.6
2018-02-13T08:10:48.707Z,1.8
2018-02-13T08:11:51.087Z,1.4
2018-02-13T08:12:54.022Z,1.4
2018-02-13T08:13:56.377Z,1.5
2018-02-13T08:14:59.117Z,1.4
2018-02-13T08:16:01.447Z,1.2
2018-02-13T08:17:03.827Z,1.2
2018-02-13T08:18:06.194Z,1.2
2018-02-13T08:19:09.284Z,1.2
2018-02-13T08:20:11.629Z,1.7
2018-02-13T08:21:13.999Z,1.8
2018-02-13T08:22:16.370Z,1.7
2018-02-13T08:23:18.743Z,1.5
2018-02-13T08:24:21.400Z,1.4
2018-02-13T08:25:23.765Z,1.4
2018-02-13T08:26:26.140Z,1.3
2018-02-13T08:27:28.513Z,1.2
2018-02-13T08:28:30.889Z,1.5
2018-02-13T08:29:33.261Z,1.7
2018-02-13T08:30:35.628Z,1.5
2018-02-13T08:31:38.285Z,1.4
2018-02-13T08:32:40.656Z,1.4
2018-02-13T08:33:43.030Z,1.2
2018-02-13T08:34:45.408Z,1.3
2018-02-13T08:35:47.780Z,1.7
2018-02-13T08:36:50.155Z,1.7
2018-02-13T08:37:52.540Z,1.5
2018-02-13T08:38:54.909Z,1.6
2018-02-13T08:39:57.286Z,1.3
2018-02-13T08:40:59.654Z,1.2
2018-02-13T08:42:02.029Z,1.3
2018-02-13T08:43:04.677Z,1.7
2018-02-13T08:44:07.049Z,1.8
2018-02-13T08:45:09.410Z,1.6
2018-02-13T08:46:11.796Z,1.6
2018-02-13T08:47:14.160Z,1.6
2018-02-13T08:48:16.533Z,1.3
2018-02-13T08:49:19.205Z,1.3
2018-02-13T08:50:22.141Z,1.5
2018-02-13T08:51:24.520Z,1.9
2018-02-13T08:52:26.894Z,1.6
2018-02-13T08:53:29.266Z,1.7
2018-02-13T08:54:31.645Z,1.5
2018-02-13T08:55:34.025Z,1.4
2018-02-13T08:56:36.386Z,1.3
2018-02-13T08:57:38.763Z,1.4
2018-02-13T08:58:41.425Z,1.7
2018-02-13T08:59:43.795Z,1.6
2018-02-13T09:00:46.174Z,1.5
2018-02-13T09:01:48.552Z,1.5
2018-02-13T09:02:50.922Z,1.6
2018-02-13T09:03:53.301Z,1.8
2018-02-13T09:04:55.686Z,1.6
2018-02-13T09:05:58.342Z,1.9
2018-02-13T09:07:01.285Z,1.7
2018-02-13T09:08:03.664Z,1.8
2018-02-13T09:09:06.042Z,1.7
2018-02-13T09:10:08.703Z,1.5
2018-02-13T09:11:11.362Z,1.3
2018-02-13T09:12:13.737Z,1.3
2018-02-13T09:13:16.122Z,1.3
2018-02-13T09:14:18.497Z,2
2018-02-13T09:15:21.148Z,2
2018-02-13T09:16:23.535Z,1.9
2018-02-13T09:17:25.908Z,1.7
2018-02-13T09:18:28.285Z,1.6
2018-02-13T09:19:30.671Z,1.4
2018-02-13T09:20:33.047Z,1.4
2018-02-13T09:21:35.429Z,1.8
2018-02-13T09:22:37.812Z,1.9
2018-02-13T09:23:40.184Z,1.9
2018-02-13T09:24:42.555Z,1.7
2018-02-13T09:25:45.494Z,1.5
2018-02-13T09:26:47.858Z,1.5
2018-02-13T09:27:50.246Z,2.1
2018-02-13T09:28:52.623Z,1.9
2018-02-13T09:29:54.994Z,1.8
2018-02-13T09:30:57.376Z,1.7
2018-02-13T09:31:59.750Z,1.5
2018-02-13T09:33:02.411Z,1.4
2018-02-13T09:34:04.791Z,1.5
2018-02-13T09:35:07.165Z,1.4
2018-02-13T09:36:09.832Z,1.8
2018-02-13T09:37:12.200Z,1.7
2018-02-13T09:38:14.586Z,1.6
2018-02-13T09:39:16.964Z,1.6
2018-02-13T09:40:19.406Z,1.4
2018-02-13T09:41:21.734Z,1.5
2018-02-13T09:42:24.115Z,1.8
2018-02-13T09:43:26.492Z,1.9
2018-02-13T09:44:28.879Z,1.7
2018-02-13T09:45:31.258Z,1.5
2018-02-13T09:46:33.641Z,1.5
2018-02-13T09:47:36.027Z,2
2018-02-13T09:48:38.404Z,1.7
2018-02-13T09:49:40.785Z,1.9
2018-02-13T09:50:43.175Z,1.8
2018-02-13T09:51:45.552Z,1.7
2018-02-13T09:52:47.939Z,1.5
2018-02-13T09:53:50.314Z,1.6
2018-02-13T09:54:52.691Z,2.1
2018-02-13T09:55:55.353Z,2
2018-02-13T09:56:58.014Z,1.9
2018-02-13T09:58:00.395Z,1.8
2018-02-13T09:59:02.827Z,1.5
2018-02-13T10:00:05.161Z,1.7
2018-02-13T10:01:07.532Z,1.9
2018-02-13T10:02:09.907Z,2
2018-02-13T10:03:12.309Z,1.8
2018-02-13T10:04:14.687Z,1.8
2018-02-13T10:05:17.062Z,1.6
2018-02-13T10:06:19.440Z,1.5
2018-02-13T10:07:22.384Z,1.8
2018-02-13T10:08:24.826Z,2
2018-02-13T10:09:27.436Z,2
2018-02-13T10:10:29.812Z,2
2018-02-13T10:11:32.193Z,1.6
2018-02-13T10:12:34.585Z,1.5
2018-02-13T10:13:36.959Z,1.6
2018-02-13T10:14:39.337Z,1.8
2018-02-13T10:15:41.714Z,2
2018-02-13T10:16:44.096Z,2
2018-02-13T10:17:46.876Z,1.6
2018-02-13T10:18:49.202Z,1.5
2018-02-13T10:19:51.579Z,1.5
2018-02-13T10:20:53.961Z,1.9
2018-02-13T10:21:56.340Z,2.1
2018-02-13T10:22:58.720Z,1.9
2018-02-13T10:24:01.106Z,1.6
2018-02-13T10:25:03.481Z,1.5
2018-02-13T10:26:06.155Z,1.6
2018-02-13T10:27:08.824Z,1.8
2018-02-13T10:28:11.198Z,1.8
2018-02-13T10:29:13.578Z,2.1
2018-02-13T10:30:15.958Z,1.6
2018-02-13T10:31:18.342Z,1.7
2018-02-13T10:32:21.001Z,1.6
2018-02-13T10:33:23.381Z,2
2018-02-13T10:34:25.762Z,1.9
2018-02-13T10:35:28.148Z,1.8
2018-02-13T10:36:30.524Z,1.6
2018-02-13T10:37:32.913Z,1.6
2018-02-13T10:38:35.350Z,1.7
2018-02-13T10:39:37.956Z,2
2018-02-13T10:40:40.338Z,2.1
2018-02-13T10:41:42.721Z,2
2018-02-13T10:42:45.098Z,1.8
2018-02-13T10:43:47.485Z,1.6
2018-02-13T10:44:49.873Z,1.6
2018-02-13T10:45:52.538Z,2
2018-02-13T10:46:54.920Z,2.1
2018-02-13T10:47:57.298Z,2
2018-02-13T10:48:59.964Z,2.1
2018-02-13T10:50:02.350Z,1.9
2018-02-13T10:51:04.723Z,1.7
2018-02-13T10:52:07.395Z,1.6
2018-02-13T10:53:09.772Z,2.2
2018-02-13T10:54:12.445Z,2.1
2018-02-13T10:55:15.109Z,2.1
2018-02-13T10:56:17.501Z,2
2018-02-13T10:57:20.176Z,1.8
2018-02-13T10:58:22.569Z,1.6
2018-02-13T10:59:24.944Z,1.7
2018-02-13T11:00:27.324Z,2.1
2018-02-13T11:01:29.712Z,1.8
2018-02-13T11:02:32.087Z,2
2018-02-13T11:03:34.478Z,1.8
2018-02-13T11:04:36.867Z,1.7
2018-02-13T11:05:39.249Z,1.6
2018-02-13T11:06:41.641Z,2.1
2018-02-13T11:07:44.025Z,2
2018-02-13T11:08:46.402Z,1.7
2018-02-13T11:09:48.800Z,1.8
2018-02-13T11:10:51.180Z,1.8
2018-02-13T11:11:53.563Z,1.9
2018-02-13T11:12:55.942Z,2.1
2018-02-13T11:13:58.326Z,1.9
2018-02-13T11:15:00.712Z,1.6
2018-02-13T11:16:03.101Z,1.7
2018-02-13T11:17:05.471Z,1.8
2018-02-13T11:18:07.855Z,2.1
2018-02-13T11:19:10.240Z,1.6
2018-02-13T11:20:12.624Z,1.7
2018-02-13T11:21:15.643Z,1.6
2018-02-13T11:22:18.031Z,2.2
2018-02-13T11:23:20.413Z,2
2018-02-13T11:24:22.811Z,2.1
2018-02-13T11:25:25.198Z,2.1
2018-02-13T11:26:27.579Z,1.6
2018-02-13T11:27:29.964Z,1.7
2018-02-13T11:28:32.350Z,1.6
2018-02-13T11:29:34.725Z,2.1
2018-02-13T11:30:37.116Z,2
2018-02-13T11:31:39.496Z,1.7
2018-02-13T11:32:41.885Z,1.8
2018-02-13T11:33:44.543Z,1.6
2018-02-13T11:34:46.930Z,2.1
2018-02-13T11:35:49.318Z,2
2018-02-13T11:36:51.700Z,1.8
2018-02-13T11:37:54.357Z,1.6
2018-02-13T11:38:57.022Z,1.8
2018-02-13T11:39:59.399Z,1.7
2018-02-13T11:41:01.786Z,1.7
2018-02-13T11:42:04.179Z,1.8
2018-02-13T11:43:06.555Z,2.1
2018-02-13T11:44:08.942Z,1.7
2018-02-13T11:45:11.326Z,1.6
2018-02-13T11:46:13.707Z,1.7
2018-02-13T11:47:16.096Z,2
2018-02-13T11:48:18.472Z,2.2
2018-02-13T11:49:20.855Z,1.8
2018-02-13T11:50:23.528Z,1.5
2018-02-13T11:51:25.906Z,1.6
2018-02-13T11:52:28.295Z,1.5
2018-02-13T11:53:30.674Z,1.9
2018-02-13T11:54:33.335Z,2
2018-02-13T11:55:35.725Z,2.1
2018-02-13T11:56:38.110Z,1.7
2018-02-13T11:57:40.480Z,1.6
2018-02-13T11:58:42.863Z,1.5
2018-02-13T11:59:45.255Z,2
2018-02-13T12:00:47.642Z,1.8
2018-02-13T12:01:50.021Z,1.9
2018-02-13T12:02:52.704Z,1.6
2018-02-13T12:03:55.087Z,1.6
2018-02-13T12:04:57.459Z,1.5
2018-02-13T12:05:59.849Z,1.8
2018-02-13T12:07:02.223Z,1.9
2018-02-13T12:08:04.604Z,1.8
2018-02-13T12:09:06.998Z,1.6
2018-02-13T12:10:09.376Z,1.7
2018-02-13T12:11:11.763Z,1.8
2018-02-13T12:12:14.144Z,1.9
2018-02-13T12:13:16.522Z,1.9
2018-02-13T12:14:18.916Z,1.8
2018-02-13T12:15:21.578Z,1.7
2018-02-13T12:16:23.952Z,1.6
2018-02-13T12:17:26.622Z,1.7
2018-02-13T12:18:29.005Z,2.3
2018-02-13T12:19:31.384Z,1.8
2018-02-13T12:20:33.769Z,1.9
2018-02-13T12:21:36.147Z,1.6
2018-02-13T12:22:38.540Z,1.7
2018-02-13T12:23:40.924Z,2.1
2018-02-13T12:24:43.303Z,2.1
2018-02-13T12:25:45.685Z,1.9
2018-02-13T12:26:48.079Z,1.9
2018-02-13T12:27:50.469Z,1.6
2018-02-13T12:28:52.853Z,1.6
2018-02-13T12:29:55.237Z,2.1
2018-02-13T12:30:57.914Z,2
2018-02-13T12:32:00.301Z,1.9
2018-02-13T12:33:02.678Z,1.8
2018-02-13T12:34:05.066Z,1.7
2018-02-13T12:35:07.447Z,1.7
2018-02-13T12:36:09.824Z,2.3
2018-02-13T12:37:12.218Z,1.8
2018-02-13T12:38:14.602Z,1.8
2018-02-13T12:39:16.991Z,1.7
2018-02-13T12:40:19.377Z,1.6
2018-02-13T12:41:21.756Z,2.1
2018-02-13T12:42:24.141Z,1.8
2018-02-13T12:43:26.524Z,1.6
2018-02-13T12:44:28.911Z,1.7
2018-02-13T12:45:31.300Z,1.6
2018-02-13T12:46:33.687Z,1.8
2018-02-13T12:47:36.058Z,2.2
2018-02-13T12:48:38.453Z,1.8
2018-02-13T12:49:40.837Z,1.7
2018-02-13T12:50:43.216Z,1.6
2018-02-13T12:51:45.603Z,2.1
2018-02-13T12:52:47.981Z,2.1
2018-02-13T12:53:50.365Z,2
2018-02-13T12:54:52.754Z,1.7
2018-02-13T12:55:55.133Z,1.6
2018-02-13T12:56:57.526Z,1.7
2018-02-13T12:57:59.913Z,2.2
2018-02-13T12:59:02.304Z,2.1
2018-02-13T13:00:04.744Z,1.7
2018-02-13T13:01:07.070Z,1.6
2018-02-13T13:02:09.456Z,1.9
2018-02-13T13:03:11.840Z,2.2
2018-02-13T13:04:14.215Z,2
2018-02-13T13:05:16.599Z,1.8
2018-02-13T13:06:18.979Z,1.8
2018-02-13T13:07:21.369Z,1.6
2018-02-13T13:08:23.754Z,2.1
2018-02-13T13:09:26.139Z,2.2
2018-02-13T13:10:28.801Z,1.7
2018-02-13T13:11:31.483Z,2
2018-02-13T13:12:33.855Z,1.9
2018-02-13T13:13:36.533Z,1.5
2018-02-13T13:14:38.918Z,2.2
2018-02-13T13:15:41.294Z,1.8
2018-02-13T13:16:43.963Z,2.1
2018-02-13T13:17:46.355Z,2
2018-02-13T13:18:48.747Z,1.6
2018-02-13T13:19:51.128Z,1.5
2018-02-13T13:20:53.509Z,1.6
2018-02-13T13:21:55.893Z,2.1
2018-02-13T13:22:58.290Z,1.8
2018-02-13T13:24:00.673Z,1.6
2018-02-13T13:25:03.059Z,1.5
2018-02-13T13:26:05.444Z,1.5
2018-02-13T13:27:07.835Z,2
2018-02-13T13:28:10.212Z,2
2018-02-13T13:29:12.596Z,1.5
2018-02-13T13:30:14.983Z,1.7
2018-02-13T13:31:17.635Z,1.6
2018-02-13T13:32:20.013Z,2.1
2018-02-13T13:33:22.402Z,2.1
2018-02-13T13:34:24.785Z,2
2018-02-13T13:35:27.175Z,1.8
2018-02-13T13:36:29.561Z,1.5
2018-02-13T13:37:31.946Z,1.5
2018-02-13T13:38:34.340Z,2.1
2018-02-13T13:39:36.729Z,1.8
2018-02-13T13:40:39.107Z,1.6
2018-02-13T13:41:41.770Z,1.6
2018-02-13T13:42:44.156Z,1.5
2018-02-13T13:43:46.541Z,1.5
2018-02-13T13:44:48.926Z,1.7
2018-02-13T13:45:51.312Z,2
2018-02-13T13:46:53.684Z,1.9
2018-02-13T13:47:56.073Z,1.5
2018-02-13T13:48:58.456Z,1.4
2018-02-13T13:50:00.834Z,1.7
2018-02-13T13:51:03.228Z,2.1
2018-02-13T13:52:05.610Z,1.8
2018-02-13T13:53:07.989Z,1.7
2018-02-13T13:54:10.374Z,1.5
2018-02-13T13:55:12.750Z,1.4
2018-02-13T13:56:15.132Z,1.7
2018-02-13T13:57:17.794Z,1.7
2018-02-13T13:58:20.456Z,1.9
2018-02-13T13:59:22.834Z,1.8
2018-02-13T14:00:25.210Z,1.5
2018-02-13T14:01:27.596Z,1.4
2018-02-13T14:02:29.980Z,1.9
2018-02-13T14:03:32.357Z,1.7
2018-02-13T14:04:34.744Z,1.7
2018-02-13T14:06:09.294Z,1.5
2018-02-13T14:07:11.730Z,1.6
2018-02-13T14:08:14.737Z,1.7
2018-02-13T14:09:17.167Z,1.8
2018-02-13T14:10:19.599Z,1.8
2018-02-13T14:11:22.034Z,1.7
2018-02-13T14:12:24.457Z,1.4
2018-02-13T14:13:26.904Z,1.5
2018-02-13T14:14:29.330Z,1.4
2018-02-13T14:15:31.762Z,1.6
2018-02-13T14:16:34.198Z,1.8
2018-02-13T14:17:36.628Z,1.6
2018-02-13T14:18:39.061Z,1.4
2018-02-13T14:19:41.499Z,1.4
2018-02-13T14:20:43.927Z,1.4
2018-02-13T14:21:46.928Z,1.9
2018-02-13T14:22:49.369Z,1.9
2018-02-13T14:23:51.799Z,1.9
2018-02-13T14:24:54.234Z,1.7
2018-02-13T14:25:56.668Z,1.4